Time;durP1;ratioP1;P1;durP2;ratioP2;P2;SDS_P1;SDS_P2;PMS_P1;PMS_P2;Temp;Humidity;BMP_temperature;BMP_pressure;BME280_temperature;BME280_humidity;BME280_pressure;Samples;Min_cycle;Max_cycle;Signal;HPM_P1;HPM_P2
2023/07/12 00:01:53;;;;;;;4.45;1.58;;;20.50;99.90;;;;;;5054638;28;20108;-76
2023/07/12 00:04:18;;;;;;;2.22;1.55;;;20.50;99.90;;;;;;5042081;28;20041;-75
2023/07/12 00:06:44;;;;;;;2.92;1.45;;;20.60;99.90;;;;;;5038194;28;20604;-76
2023/07/12 00:09:16;;;;;;;4.82;1.65;;;20.50;99.90;;;;;;5041015;28;20040;-76
2023/07/12 00:11:41;;;;;;;7.15;2.15;;;20.50;99.90;;;;;;5038519;28;20060;-75
2023/07/12 00:14:09;;;;;;;4.03;2.10;;;20.40;99.90;;;;;;5038371;28;20779;-76
2023/07/12 00:16:38;;;;;;;4.60;2.08;;;20.30;99.90;;;;;;5038581;28;20044;-75
2023/07/12 00:19:08;;;;;;;3.63;1.90;;;20.30;99.90;;;;;;5035974;28;20098;-75
2023/07/12 00:21:33;;;;;;;4.97;1.90;;;20.30;99.90;;;;;;5056506;28;20554;-75
2023/07/12 00:24:01;;;;;;;3.78;1.55;;;20.40;99.90;;;;;;5042952;28;20032;-76
2023/07/12 00:26:29;;;;;;;4.53;2.03;;;20.40;99.90;;;;;;5039080;28;20068;-75
2023/07/12 00:28:56;;;;;;;3.85;1.95;;;20.50;99.90;;;;;;5040696;28;20025;-78
2023/07/12 00:31:22;;;;;;;3.25;1.70;;;20.40;99.90;;;;;;5039837;28;20516;-75
2023/07/12 00:33:48;;;;;;;11.55;1.95;;;20.40;99.90;;;;;;5038620;28;20075;-78
2023/07/12 00:36:26;;;;;;;3.13;1.75;;;20.40;99.90;;;;;;5037793;28;20195;-78
2023/07/12 00:38:53;;;;;;;4.68;1.77;;;20.40;99.90;;;;;;5040014;28;20197;-77
2023/07/12 00:41:31;;;;;;;4.53;1.58;;;20.50;99.90;;;;;;5040418;28;20457;-77
2023/07/12 00:44:10;;;;;;;5.18;1.77;;;20.40;99.90;;;;;;5041381;28;20078;-78
2023/07/12 00:46:38;;;;;;;1.70;1.60;;;20.40;99.90;;;;;;5039470;28;20013;-78
2023/07/12 00:49:04;;;;;;;2.33;1.45;;;20.50;99.90;;;;;;5039034;28;20021;-78
2023/07/12 00:51:52;;;;;;;5.63;1.60;;;20.50;99.90;;;;;;5037837;28;20177;-78
2023/07/12 00:54:20;;;;;;;4.57;1.77;;;20.50;99.90;;;;;;5040069;28;20082;-78
2023/07/12 00:56:46;;;;;;;4.05;1.60;;;20.60;99.90;;;;;;5038746;28;20103;-78
2023/07/12 00:59:26;;;;;;;4.85;1.38;;;20.70;99.90;;;;;;5039901;28;20035;-77
2023/07/12 01:01:56;;;;;;;3.83;1.60;;;20.70;99.90;;;;;;5053378;28;20045;-77
2023/07/12 01:04:31;;;;;;;2.90;1.20;;;20.50;99.90;;;;;;5040088;28;20135;-77
2023/07/12 01:06:57;;;;;;;2.63;1.55;;;20.60;99.90;;;;;;5039016;28;20577;-77
2023/07/12 01:09:25;;;;;;;3.58;1.75;;;20.40;99.90;;;;;;5038120;28;20356;-78
2023/07/12 01:11:52;;;;;;;4.47;1.52;;;20.30;99.90;;;;;;5039281;28;20384;-81
2023/07/12 01:14:18;;;;;;;2.83;1.23;;;20.30;99.90;;;;;;5038840;28;20048;-78
2023/07/12 01:16:50;;;;;;;2.25;1.58;;;20.20;99.90;;;;;;5039592;28;20079;-80
2023/07/12 01:19:16;;;;;;;3.23;1.47;;;20.30;99.90;;;;;;5032684;28;20394;-80
2023/07/12 01:21:45;;;;;;;3.22;1.80;;;20.20;99.90;;;;;;5038209;28;20325;-80
2023/07/12 01:24:14;;;;;;;2.97;1.65;;;20.20;99.90;;;;;;5036067;28;20035;-79
2023/07/12 01:26:46;;;;;;;4.57;1.50;;;20.10;99.90;;;;;;5037207;28;20036;-80
2023/07/12 01:29:12;;;;;;;7.63;1.70;;;20.00;99.90;;;;;;5038914;28;20025;-80
2023/07/12 01:31:41;;;;;;;5.50;1.65;;;20.00;99.90;;;;;;5039873;28;20032;-81
2023/07/12 01:34:07;;;;;;;3.28;1.50;;;20.00;99.90;;;;;;5038347;28;20043;-79
2023/07/12 01:36:33;;;;;;;4.55;1.80;;;20.00;99.90;;;;;;5036433;28;20048;-80
2023/07/12 01:39:00;;;;;;;5.32;2.00;;;19.90;99.90;;;;;;5047888;28;20025;-78
2023/07/12 01:41:27;;;;;;;3.30;1.80;;;19.80;99.90;;;;;;5040070;28;20134;-80
2023/07/12 01:43:53;;;;;;;5.47;2.22;;;19.80;99.90;;;;;;5037116;28;20455;-80
2023/07/12 01:46:20;;;;;;;6.57;2.08;;;19.80;99.90;;;;;;5040205;28;20024;-79
2023/07/12 01:48:45;;;;;;;3.22;2.10;;;19.70;99.90;;;;;;5039197;28;20563;-80
2023/07/12 01:51:12;;;;;;;2.92;2.05;;;19.70;99.90;;;;;;5036944;28;20021;-80
2023/07/12 01:53:38;;;;;;;5.00;1.90;;;19.70;99.90;;;;;;5041590;28;20033;-79
2023/07/12 01:56:05;;;;;;;7.43;2.17;;;19.70;99.90;;;;;;5035994;28;20029;-78
2023/07/12 01:58:31;;;;;;;4.03;2.20;;;19.70;99.90;;;;;;5040149;28;20396;-79
2023/07/12 02:01:00;;;;;;;4.00;2.47;;;19.80;99.90;;;;;;5038133;28;20033;-79
2023/07/12 02:03:26;;;;;;;3.03;2.00;;;19.80;99.90;;;;;;5037027;28;20025;-80
2023/07/12 02:05:53;;;;;;;4.80;2.50;;;19.70;99.90;;;;;;5039875;28;20055;-79
2023/07/12 02:08:19;;;;;;;2.97;2.40;;;19.70;99.90;;;;;;5039244;28;20400;-79
2023/07/12 02:10:45;;;;;;;5.45;2.20;;;19.70;99.90;;;;;;5039745;28;20489;-79
2023/07/12 02:13:11;;;;;;;4.82;2.58;;;19.80;99.90;;;;;;5037178;28;20128;-80
2023/07/12 02:15:37;;;;;;;4.47;2.50;;;19.80;99.90;;;;;;5039512;28;20110;-79
2023/07/12 02:18:03;;;;;;;7.43;2.63;;;19.70;99.90;;;;;;5038581;28;20035;-80
2023/07/12 02:20:30;;;;;;;4.07;2.05;;;19.80;99.90;;;;;;5039573;28;20083;-80
2023/07/12 02:22:56;;;;;;;3.58;1.85;;;19.70;99.90;;;;;;5040957;28;20759;-79
2023/07/12 02:25:22;;;;;;;5.03;1.98;;;19.70;99.90;;;;;;5038916;28;20381;-79
2023/07/12 02:27:50;;;;;;;4.13;2.03;;;19.70;99.90;;;;;;5037674;28;20025;-79
2023/07/12 02:30:26;;;;;;;6.03;2.35;;;19.70;99.90;;;;;;5031819;28;20017;-80
2023/07/12 02:32:52;;;;;;;7.70;2.95;;;19.70;99.90;;;;;;5052096;28;20028;-79
2023/07/12 02:35:19;;;;;;;10.10;3.15;;;19.50;99.90;;;;;;5041720;28;20032;-78
2023/07/12 02:37:45;;;;;;;8.18;2.80;;;18.80;99.90;;;;;;5037705;28;20691;-77
2023/07/12 02:40:14;;;;;;;6.97;3.33;;;18.20;99.90;;;;;;5040317;28;20104;-77
2023/07/12 02:42:41;;;;;;;10.23;2.78;;;17.70;99.90;;;;;;5037356;28;20013;-82
2023/07/12 02:45:07;;;;;;;8.95;3.05;;;17.70;99.90;;;;;;5038770;28;20047;-81
2023/07/12 02:47:33;;;;;;;7.07;2.63;;;17.60;99.90;;;;;;5038327;28;20300;-82
2023/07/12 02:50:01;;;;;;;9.05;3.13;;;17.80;99.90;;;;;;5037496;28;20049;-82
2023/07/12 02:52:27;;;;;;;8.90;3.08;;;17.60;99.90;;;;;;5038569;28;20025;-78
2023/07/12 02:54:52;;;;;;;10.50;3.08;;;17.70;99.90;;;;;;5038988;28;20136;-78
2023/07/12 02:57:18;;;;;;;6.05;2.75;;;17.70;99.90;;;;;;5045670;28;20306;-81
2023/07/12 02:59:44;;;;;;;8.55;3.78;;;17.70;99.90;;;;;;5040407;28;20578;-81
2023/07/12 03:02:11;;;;;;;13.20;2.90;;;17.80;99.90;;;;;;5039017;28;20047;-82
2023/07/12 03:04:37;;;;;;;7.47;3.08;;;17.70;99.90;;;;;;5041613;28;20025;-81
2023/07/12 03:07:03;;;;;;;9.38;3.40;;;17.60;99.90;;;;;;5036442;28;20550;-81
2023/07/12 03:09:29;;;;;;;10.02;3.15;;;17.40;99.90;;;;;;5037789;28;20025;-80
2023/07/12 03:11:55;;;;;;;8.98;2.65;;;17.50;99.90;;;;;;5040660;28;20033;-79
2023/07/12 03:14:22;;;;;;;9.93;2.95;;;17.50;99.90;;;;;;5037440;28;20035;-78
2023/07/12 03:16:51;;;;;;;9.65;2.58;;;17.50;99.90;;;;;;5037959;28;20292;-78
2023/07/12 03:19:17;;;;;;;10.85;3.33;;;17.50;99.90;;;;;;5040452;28;20029;-79
2023/07/12 03:21:43;;;;;;;9.88;2.75;;;17.40;99.90;;;;;;5041455;28;20550;-79
2023/07/12 03:24:14;;;;;;;10.05;3.20;;;17.40;99.90;;;;;;5041806;28;20032;-79
2023/07/12 03:26:40;;;;;;;9.90;2.92;;;17.30;99.90;;;;;;5041435;28;20092;-79
2023/07/12 03:29:06;;;;;;;10.80;2.75;;;17.40;99.90;;;;;;5040827;28;20048;-79
2023/07/12 03:31:32;;;;;;;6.13;2.75;;;17.40;99.90;;;;;;5043898;28;20432;-79
2023/07/12 03:33:59;;;;;;;11.43;3.10;;;17.40;99.90;;;;;;5037488;28;20115;-79
2023/07/12 03:36:28;;;;;;;11.70;2.75;;;17.30;99.90;;;;;;5041128;28;20044;-78
2023/07/12 03:38:54;;;;;;;8.35;4.53;;;17.30;99.90;;;;;;5042446;28;20104;-79
2023/07/12 03:41:23;;;;;;;6.95;3.20;;;17.40;99.90;;;;;;5043720;28;20048;-78
2023/07/12 03:43:49;;;;;;;10.93;2.63;;;17.40;99.90;;;;;;5045883;28;20623;-80
2023/07/12 03:46:16;;;;;;;13.30;2.70;;;17.30;99.90;;;;;;5047510;28;20067;-81
2023/07/12 03:48:42;;;;;;;6.18;2.60;;;17.40;99.90;;;;;;5052098;28;20040;-80
2023/07/12 03:51:10;;;;;;;9.88;2.88;;;17.40;99.90;;;;;;5047245;28;20147;-81
2023/07/12 03:53:37;;;;;;;21.42;3.15;;;17.40;99.90;;;;;;5043151;28;20078;-80
2023/07/12 03:56:03;;;;;;;6.43;2.95;;;17.40;99.90;;;;;;5041679;28;20393;-81
2023/07/12 03:58:31;;;;;;;12.20;2.90;;;17.40;99.90;;;;;;5040931;28;20033;-78
2023/07/12 04:01:01;;;;;;;9.65;3.00;;;17.40;99.90;;;;;;5040378;28;20020;-79
2023/07/12 04:03:27;;;;;;;9.32;2.50;;;17.40;99.90;;;;;;5040830;28;20078;-79
2023/07/12 04:05:53;;;;;;;8.90;2.67;;;17.40;99.90;;;;;;5043033;28;20020;-78
2023/07/12 04:08:19;;;;;;;8.60;2.85;;;17.50;99.90;;;;;;5043149;28;20096;-79
2023/07/12 04:10:45;;;;;;;8.30;2.95;;;17.40;99.90;;;;;;5039728;28;20038;-78
2023/07/12 04:13:11;;;;;;;6.90;2.97;;;17.40;99.90;;;;;;5041157;28;20499;-79
2023/07/12 04:15:36;;;;;;;8.10;2.70;;;17.30;99.90;;;;;;5044977;28;20047;-79
2023/07/12 04:18:03;;;;;;;3.60;3.22;;;17.30;99.90;;;;;;5046679;28;20029;-79
2023/07/12 04:20:32;;;;;;;7.60;2.75;;;17.40;99.90;;;;;;5041688;28;20025;-79
2023/07/12 04:22:58;;;;;;;10.15;3.55;;;17.40;99.90;;;;;;5038365;28;20029;-80
2023/07/12 04:25:24;;;;;;;7.75;2.85;;;17.40;99.90;;;;;;5040683;28;20021;-78
2023/07/12 04:27:49;;;;;;;15.07;3.20;;;17.50;99.90;;;;;;5042869;28;20338;-79
2023/07/12 04:30:16;;;;;;;6.70;3.30;;;17.50;99.90;;;;;;5041697;28;20110;-81
2023/07/12 04:32:42;;;;;;;5.97;2.60;;;17.40;99.90;;;;;;5040406;28;20013;-80
2023/07/12 04:35:08;;;;;;;6.07;2.72;;;17.30;99.90;;;;;;5044216;28;20028;-80
2023/07/12 04:37:34;;;;;;;5.72;2.72;;;17.30;99.90;;;;;;5041998;28;20091;-81
2023/07/12 04:40:00;;;;;;;7.70;2.95;;;17.30;99.90;;;;;;5039344;28;20049;-81
2023/07/12 04:42:26;;;;;;;7.05;2.72;;;17.30;99.90;;;;;;5043152;28;20547;-80
2023/07/12 04:44:52;;;;;;;4.90;2.67;;;17.30;99.90;;;;;;5036006;28;20112;-80
2023/07/12 04:47:18;;;;;;;5.38;2.97;;;17.30;99.90;;;;;;5041429;28;20420;-78
2023/07/12 04:49:44;;;;;;;10.13;2.70;;;17.30;99.90;;;;;;5040100;28;20058;-78
2023/07/12 04:52:11;;;;;;;9.55;2.28;;;17.30;99.90;;;;;;5040928;28;20033;-79
2023/07/12 04:54:40;;;;;;;4.80;2.70;;;17.40;99.90;;;;;;5040053;28;20029;-79
2023/07/12 04:57:06;;;;;;;6.32;2.78;;;17.40;99.90;;;;;;5041842;28;20423;-78
2023/07/12 04:59:32;;;;;;;8.35;2.88;;;17.40;99.90;;;;;;5043486;28;20104;-78
2023/07/12 05:02:00;;;;;;;4.72;2.20;;;17.40;99.90;;;;;;5043672;28;20028;-79
2023/07/12 05:04:26;;;;;;;2.63;2.35;;;17.30;99.90;;;;;;5041341;28;20025;-78
2023/07/12 05:06:54;;;;;;;8.10;2.88;;;17.30;99.90;;;;;;5040627;28;20476;-78
2023/07/12 05:09:21;;;;;;;6.07;2.40;;;17.20;99.90;;;;;;5037475;28;20182;-78
2023/07/12 05:11:50;;;;;;;4.30;2.35;;;17.20;99.90;;;;;;5042058;28;20029;-78
2023/07/12 05:14:18;;;;;;;8.52;2.38;;;17.20;99.90;;;;;;5043189;28;20037;-78
2023/07/12 05:16:43;;;;;;;9.20;3.05;;;17.30;99.90;;;;;;5043462;28;20040;-80
2023/07/12 05:19:09;;;;;;;6.43;3.45;;;17.30;99.90;;;;;;5040496;28;20029;-79
2023/07/12 05:21:37;;;;;;;3.65;2.97;;;17.30;99.90;;;;;;5040675;28;20021;-77
2023/07/12 05:24:03;;;;;;;6.10;3.17;;;17.20;99.90;;;;;;5042437;28;20060;-79
2023/07/12 05:26:28;;;;;;;4.68;2.97;;;17.20;99.90;;;;;;5038901;28;20053;-79
2023/07/12 05:28:54;;;;;;;9.77;2.97;;;17.20;99.90;;;;;;5039955;28;20036;-78
2023/07/12 05:31:19;;;;;;;7.88;3.38;;;17.20;99.90;;;;;;5040687;28;20017;-79
2023/07/12 05:33:47;;;;;;;5.90;3.10;;;17.20;99.90;;;;;;5041149;28;20110;-79
2023/07/12 05:36:13;;;;;;;9.38;3.70;;;17.30;99.90;;;;;;5043383;28;20135;-78
2023/07/12 05:38:39;;;;;;;5.72;3.35;;;17.20;99.90;;;;;;5039313;28;20035;-79
2023/07/12 05:41:05;;;;;;;7.00;3.58;;;17.10;99.90;;;;;;5044251;28;20024;-78
2023/07/12 05:43:36;;;;;;;11.38;4.10;;;17.20;99.90;;;;;;5042572;28;20499;-78
2023/07/12 05:46:03;;;;;;;7.70;4.40;;;17.10;99.90;;;;;;5055091;28;20079;-78
2023/07/12 05:48:29;;;;;;;6.07;4.57;;;17.20;99.90;;;;;;5042704;28;20025;-78
2023/07/12 05:51:01;;;;;;;8.82;4.50;;;17.30;99.90;;;;;;5039427;28;20410;-77
2023/07/12 05:53:27;;;;;;;7.88;4.72;;;17.40;99.90;;;;;;5042250;28;20025;-78
2023/07/12 05:55:56;;;;;;;9.23;5.10;;;17.40;99.90;;;;;;5039116;28;20025;-78
2023/07/12 05:58:23;;;;;;;8.25;4.53;;;17.40;99.90;;;;;;5040014;28;20401;-78
2023/07/12 06:00:53;;;;;;;12.20;5.78;;;17.40;99.90;;;;;;5040295;28;20176;-78
2023/07/12 06:03:19;;;;;;;12.35;5.45;;;17.40;99.90;;;;;;5042000;28;20098;-80
2023/07/12 06:05:45;;;;;;;9.05;4.75;;;17.50;99.90;;;;;;5050748;28;20021;-80
2023/07/12 06:08:11;;;;;;;10.73;6.15;;;17.40;99.90;;;;;;5041734;28;20025;-79
2023/07/12 06:10:36;;;;;;;6.72;5.68;;;17.40;99.90;;;;;;5039157;28;20660;-79
2023/07/12 06:13:02;;;;;;;14.18;6.60;;;17.40;99.90;;;;;;5041582;28;20131;-78
2023/07/12 06:15:27;;;;;;;13.27;5.53;;;17.30;99.90;;;;;;5042866;28;20032;-79
2023/07/12 06:17:56;;;;;;;7.10;5.30;;;17.50;99.90;;;;;;5038137;28;20040;-79
2023/07/12 06:20:23;;;;;;;15.52;6.47;;;17.40;99.90;;;;;;5043990;28;20099;-79
2023/07/12 06:22:49;;;;;;;14.45;6.68;;;17.60;99.90;;;;;;5043433;28;20044;-79
2023/07/12 06:25:14;;;;;;;11.80;5.25;;;17.80;99.90;;;;;;5056013;28;20488;-79
2023/07/12 06:27:40;;;;;;;16.85;5.88;;;17.80;99.90;;;;;;5039922;28;20699;-79
2023/07/12 06:30:06;;;;;;;8.68;4.10;;;17.90;99.90;;;;;;5038624;28;20096;-81
2023/07/12 06:32:32;;;;;;;7.35;3.85;;;18.00;99.90;;;;;;5040565;28;20112;-80
2023/07/12 06:34:57;;;;;;;12.32;4.05;;;17.90;99.90;;;;;;5039837;28;20092;-80
2023/07/12 06:37:23;;;;;;;10.10;4.80;;;17.90;99.90;;;;;;5037710;28;20132;-81
2023/07/12 06:39:48;;;;;;;9.13;4.25;;;18.00;99.90;;;;;;5040730;28;20140;-80
2023/07/12 06:42:14;;;;;;;8.18;3.90;;;18.10;99.90;;;;;;5045857;28;20033;-81
2023/07/12 06:44:40;;;;;;;5.85;4.00;;;18.10;99.90;;;;;;5037275;28;20025;-79
2023/07/12 06:47:06;;;;;;;9.82;4.32;;;18.20;99.90;;;;;;5038043;28;20033;-78
2023/07/12 06:49:34;;;;;;;9.93;3.75;;;18.30;99.90;;;;;;5038474;28;20111;-78
2023/07/12 06:52:00;;;;;;;5.57;3.67;;;18.50;99.90;;;;;;5039688;28;20021;-78
2023/07/12 06:54:25;;;;;;;8.77;3.42;;;18.60;99.90;;;;;;5040631;28;20043;-78
2023/07/12 06:56:51;;;;;;;7.07;3.47;;;18.60;99.90;;;;;;5046221;28;20021;-77
2023/07/12 06:59:17;;;;;;;11.77;3.97;;;18.60;99.90;;;;;;5045471;28;20487;-78
2023/07/12 07:01:43;;;;;;;8.60;3.67;;;18.60;99.90;;;;;;5042494;28;20029;-77
2023/07/12 07:04:11;;;;;;;10.82;3.97;;;18.60;99.90;;;;;;5045067;28;20021;-77
2023/07/12 07:06:36;;;;;;;12.80;4.18;;;18.70;99.90;;;;;;5048869;28;20174;-81
2023/07/12 07:09:02;;;;;;;9.95;3.70;;;18.60;99.90;;;;;;5043763;28;20400;-79
2023/07/12 07:11:28;;;;;;;15.13;3.33;;;18.60;99.90;;;;;;5043124;28;20140;-78
2023/07/12 07:13:54;;;;;;;7.30;4.13;;;18.60;99.90;;;;;;5042790;28;20031;-80
2023/07/12 07:16:19;;;;;;;11.25;3.33;;;18.60;99.90;;;;;;5038919;28;20017;-79
2023/07/12 07:18:49;;;;;;;12.60;3.33;;;18.70;99.90;;;;;;5042751;28;20037;-81
2023/07/12 07:21:18;;;;;;;7.50;2.75;;;18.60;99.90;;;;;;5042683;28;20110;-80
2023/07/12 07:23:44;;;;;;;5.47;2.75;;;18.70;99.90;;;;;;5042655;28;20029;-79
2023/07/12 07:26:11;;;;;;;8.15;2.45;;;18.70;99.90;;;;;;5040668;28;20017;-79
2023/07/12 07:28:40;;;;;;;7.22;2.58;;;18.70;99.90;;;;;;5139103;22;20074;-80
2023/07/12 07:31:07;;;;;;;5.95;2.22;;;18.60;99.90;;;;;;4975513;28;20707;-77
2023/07/12 07:33:37;;;;;;;5.78;2.53;;;18.80;99.90;;;;;;4973889;28;20096;-79
2023/07/12 07:36:05;;;;;;;7.93;2.70;;;18.80;99.90;;;;;;4973376;28;20431;-78
2023/07/12 07:38:31;;;;;;;7.18;2.90;;;18.70;99.90;;;;;;4976395;28;20384;-79
2023/07/12 07:40:56;;;;;;;6.95;2.20;;;18.90;99.90;;;;;;4974551;28;20032;-78
2023/07/12 07:43:22;;;;;;;7.20;2.00;;;19.20;99.90;;;;;;4988508;28;20026;-80
2023/07/12 07:45:48;;;;;;;8.73;2.42;;;19.20;99.90;;;;;;5010340;28;20057;-81
2023/07/12 07:48:16;;;;;;;9.23;2.33;;;19.20;99.90;;;;;;4984451;28;20034;-79
2023/07/12 07:50:42;;;;;;;9.75;2.38;;;19.40;99.90;;;;;;4974668;28;20465;-78
2023/07/12 07:53:11;;;;;;;6.65;1.98;;;19.50;99.90;;;;;;4976497;28;20022;-78
2023/07/12 07:55:44;;;;;;;8.73;2.58;;;19.60;99.90;;;;;;4974677;28;20145;-77
2023/07/12 07:58:11;;;;;;;10.68;2.58;;;19.60;99.90;;;;;;4975291;28;20126;-77
2023/07/12 08:00:37;;;;;;;6.97;3.40;;;19.60;99.90;;;;;;4974712;28;20026;-78
2023/07/12 08:03:04;;;;;;;6.68;2.45;;;19.60;99.90;;;;;;4989072;28;20015;-78
2023/07/12 08:05:30;;;;;;;7.47;2.53;;;19.60;99.90;;;;;;4975071;28;20067;-78
2023/07/12 08:07:56;;;;;;;7.55;2.40;;;19.60;99.90;;;;;;4973174;28;20062;-77
2023/07/12 08:10:22;;;;;;;5.25;2.25;;;19.70;99.90;;;;;;4975103;28;20497;-76
2023/07/12 08:12:48;;;;;;;5.57;2.83;;;19.80;99.90;;;;;;4974312;28;20122;-79
2023/07/12 08:15:14;;;;;;;9.77;3.47;;;20.10;99.90;;;;;;4975697;28;20014;-79
2023/07/12 08:17:40;;;;;;;5.10;2.50;;;20.40;99.90;;;;;;4989618;28;20034;-82
2023/07/12 08:20:08;;;;;;;8.68;2.90;;;20.60;99.90;;;;;;4973872;28;20057;-78
2023/07/12 08:22:33;;;;;;;11.45;2.65;;;20.50;99.90;;;;;;4990588;28;20247;-78
2023/07/12 08:24:59;;;;;;;5.47;3.30;;;20.50;99.90;;;;;;4974274;28;20113;-78
2023/07/12 08:27:25;;;;;;;8.90;2.90;;;20.80;99.90;;;;;;4975292;28;20073;-78
2023/07/12 08:29:51;;;;;;;7.72;2.33;;;21.30;99.90;;;;;;4974011;28;20045;-76
2023/07/12 08:32:18;;;;;;;18.75;3.10;;;21.30;99.90;;;;;;4973145;28;20030;-80
2023/07/12 08:34:44;;;;;;;7.47;2.65;;;21.20;99.90;;;;;;4972730;28;20129;-82
2023/07/12 08:37:12;;;;;;;9.07;3.20;;;21.30;99.90;;;;;;4974760;28;20809;-80
2023/07/12 08:39:38;;;;;;;8.93;2.78;;;21.40;99.90;;;;;;4988235;28;20030;-81
2023/07/12 08:42:25;;;;;;;7.10;3.28;;;21.50;99.90;;;;;;4978270;28;20029;-82
2023/07/12 08:44:56;;;;;;;7.82;2.97;;;21.50;99.90;;;;;;4976807;28;20042;-79
2023/07/12 08:47:35;;;;;;;9.00;3.00;;;21.20;99.90;;;;;;4973989;28;20263;-80
2023/07/12 08:50:11;;;;;;;4.88;2.30;;;21.30;99.90;;;;;;4974828;28;20022;-80
2023/07/12 08:52:40;;;;;;;8.52;2.53;;;21.30;99.90;;;;;;4975266;28;20048;-82
2023/07/12 08:55:18;;;;;;;12.50;3.40;;;21.40;99.90;;;;;;4973989;28;20052;-80
2023/07/12 08:57:50;;;;;;;7.28;2.50;;;21.50;99.90;;;;;;4974774;28;20101;-79
2023/07/12 09:00:20;;;;;;;9.15;2.90;;;21.60;99.90;;;;;;4973706;28;20026;-78
2023/07/12 09:02:46;;;;;;;13.30;3.30;;;21.30;99.90;;;;;;4973883;28;20034;-82
2023/07/12 09:05:16;;;;;;;15.35;3.15;;;21.60;99.90;;;;;;4973839;28;20040;-80
2023/07/12 09:07:59;;;;;;;12.18;3.45;;;21.80;99.90;;;;;;4974864;28;20026;-79
2023/07/12 09:10:39;;;;;;;11.50;3.75;;;22.00;99.90;;;;;;4986945;28;20029;-81
2023/07/12 09:13:06;;;;;;;12.10;3.42;;;22.30;99.90;;;;;;4972023;28;20026;-83
2023/07/12 09:15:37;;;;;;;12.95;2.88;;;22.10;99.90;;;;;;4987461;28;20030;-80
2023/07/12 09:18:07;;;;;;;7.10;3.15;;;21.80;99.90;;;;;;4972460;28;20065;-84
2023/07/12 09:20:37;;;;;;;4.60;2.70;;;21.80;99.90;;;;;;4972320;28;20501;-80
2023/07/12 09:23:11;;;;;;;7.60;2.55;;;21.90;99.90;;;;;;4975436;28;20030;-84
2023/07/12 09:25:38;;;;;;;14.18;2.75;;;22.00;99.90;;;;;;4974776;28;20034;-80
2023/07/12 09:28:05;;;;;;;6.63;2.53;;;21.70;99.90;;;;;;4972714;28;20161;-83
2023/07/12 09:30:33;;;;;;;10.10;2.40;;;21.80;99.90;;;;;;4974608;28;20023;-81
2023/07/12 09:33:05;;;;;;;8.30;2.60;;;22.10;99.90;;;;;;4970604;28;20478;-82
2023/07/12 09:35:40;;;;;;;10.50;2.40;;;22.30;99.90;;;;;;4989295;28;20060;-81
2023/07/12 09:38:12;;;;;;;6.72;2.42;;;22.70;99.90;;;;;;4973893;28;20034;-80
2023/07/12 09:40:49;;;;;;;7.10;2.22;;;23.00;99.90;;;;;;4975491;28;20018;-82
2023/07/12 09:43:26;;;;;;;6.13;2.22;;;23.20;99.90;;;;;;4974226;28;20626;-79
2023/07/12 09:45:58;;;;;;;8.57;2.67;;;23.00;99.90;;;;;;4984316;28;20037;-83
2023/07/12 09:48:48;;;;;;;5.35;2.08;;;23.50;99.90;;;;;;4988873;28;20026;-80
2023/07/12 09:51:37;;;;;;;3.85;2.17;;;24.10;99.90;;;;;;4983764;28;20041;-81
2023/07/12 09:54:26;;;;;;;7.68;2.40;;;24.30;99.70;;;;;;4957541;28;20038;-78
2023/07/12 09:57:00;;;;;;;6.35;3.15;;;24.00;99.60;;;;;;4974571;28;20023;-86
2023/07/12 09:59:51;;;;;;;6.22;2.53;;;24.20;99.20;;;;;;4975241;28;20134;-79
2023/07/12 10:03:01;;;;;;;6.72;1.92;;;24.20;98.40;;;;;;4974843;28;20097;-82
2023/07/12 10:05:29;;;;;;;147.05;60.88;;;24.50;98.10;;;;;;4956097;28;20034;-82
2023/07/12 10:07:55;;;;;;;102.15;39.33;;;24.50;98.30;;;;;;4974291;28;20984;-85
2023/07/12 10:10:39;;;;;;;6.28;2.20;;;24.40;97.80;;;;;;4973437;28;20068;-82
2023/07/12 10:13:23;;;;;;;7.63;2.20;;;24.40;98.70;;;;;;4990071;28;20061;-82
2023/07/12 10:15:49;;;;;;;9.45;2.63;;;24.50;98.50;;;;;;4974816;28;20041;-82
2023/07/12 10:18:24;;;;;;;11.50;2.67;;;24.10;96.60;;;;;;4972791;28;20078;-85
2023/07/12 10:20:50;;;;;;;11.52;2.53;;;23.90;97.20;;;;;;4966214;28;20065;-78
2023/07/12 10:23:20;;;;;;;4.53;2.65;;;23.70;97.20;;;;;;4971875;28;20564;-84
2023/07/12 10:25:54;;;;;;;4.80;2.20;;;24.00;97.50;;;;;;4987822;28;20026;-82
2023/07/12 10:28:43;;;;;;;6.63;2.63;;;24.20;96.30;;;;;;4973530;28;20026;-85
2023/07/12 10:31:32;;;;;;;7.10;2.83;;;24.20;96.30;;;;;;4978910;28;20049;-84
2023/07/12 10:34:19;;;;;;;8.88;2.95;;;24.70;95.80;;;;;;4973909;28;20252;-81
2023/07/12 10:36:47;;;;;;;6.13;2.55;;;25.00;94.80;;;;;;4972145;28;20034;-78
2023/07/12 10:39:15;;;;;;;78.03;26.88;;;25.00;94.70;;;;;;4983778;28;20403;-78
2023/07/12 10:41:47;;;;;;;6.35;3.00;;;25.80;94.00;;;;;;4971979;28;20335;-77
2023/07/12 10:44:23;;;;;;;3.60;2.22;;;25.90;92.40;;;;;;4968236;28;20034;-83
2023/07/12 10:46:56;;;;;;;9.15;2.42;;;26.10;91.50;;;;;;4967427;28;20038;-79
2023/07/12 10:49:52;;;;;;;5.20;2.63;;;25.90;92.10;;;;;;4987363;28;20042;-84
2023/07/12 10:52:34;;;;;;;6.88;2.63;;;25.80;88.50;;;;;;4972158;28;20414;-78
2023/07/12 10:55:03;;;;;;;10.15;2.90;;;25.60;90.10;;;;;;4984818;28;20070;-82
2023/07/12 10:57:44;;;;;;;7.88;2.78;;;25.50;90.40;;;;;;4971728;28;20221;-84
2023/07/12 11:00:12;;;;;;;5.28;2.92;;;25.90;91.70;;;;;;4973586;28;20026;-84
2023/07/12 11:02:47;;;;;;;6.53;2.55;;;26.40;87.70;;;;;;4980661;28;20125;-79
2023/07/12 11:05:50;;;;;;;4.43;2.20;;;26.10;88.30;;;;;;4988871;28;20038;-81
2023/07/12 11:08:31;;;;;;;6.57;2.55;;;25.70;87.00;;;;;;4993295;28;20022;-82
2023/07/12 11:11:09;;;;;;;6.63;2.17;;;25.10;90.00;;;;;;4993357;28;20084;-82
2023/07/12 11:13:43;;;;;;;8.30;2.20;;;25.30;89.40;;;;;;4989612;28;20031;-83
2023/07/12 11:16:18;;;;;;;2.92;1.88;;;25.10;89.50;;;;;;4998290;28;20464;-80
2023/07/12 11:18:50;;;;;;;5.57;2.30;;;25.40;90.00;;;;;;4998725;28;20030;-83
2023/07/12 11:21:51;;;;;;;10.75;2.40;;;26.00;89.70;;;;;;5001478;28;20033;-80
2023/07/12 11:24:25;;;;;;;3.53;2.10;;;26.20;84.80;;;;;;4965163;28;20130;-83
2023/07/12 11:26:54;;;;;;;6.40;1.92;;;26.20;85.30;;;;;;4993754;28;20114;-82
2023/07/12 11:29:35;;;;;;;5.25;2.42;;;26.50;84.10;;;;;;4988894;28;20037;-79
2023/07/12 11:32:22;;;;;;;5.28;2.30;;;27.00;83.50;;;;;;4990767;28;20639;-83
2023/07/12 11:34:48;;;;;;;5.93;2.00;;;27.10;80.20;;;;;;4990610;28;21305;-83
2023/07/12 11:37:30;;;;;;;9.75;2.70;;;27.30;79.60;;;;;;5005705;28;20606;-79
2023/07/12 11:40:01;;;;;;;9.05;2.90;;;26.50;81.60;;;;;;4989460;28;20038;-84
2023/07/12 11:42:28;;;;;;;4.10;1.83;;;26.50;82.30;;;;;;5006872;28;20066;-83
2023/07/12 11:45:09;;;;;;;6.97;1.80;;;26.40;81.20;;;;;;4993339;28;20478;-82
2023/07/12 11:47:39;;;;;;;7.40;1.92;;;26.00;81.30;;;;;;4995022;28;20034;-82
2023/07/12 11:50:06;;;;;;;4.15;1.90;;;25.90;82.50;;;;;;5001561;28;20113;-79
2023/07/12 11:52:34;;;;;;;4.32;1.35;;;26.40;81.30;;;;;;5003566;28;20025;-78
2023/07/12 11:55:04;;;;;;;4.15;1.63;;;26.30;79.30;;;;;;4991579;28;20539;-78
2023/07/12 11:57:38;;;;;;;6.70;1.70;;;26.40;78.80;;;;;;4992234;28;20018;-79
2023/07/12 12:00:26;;;;;;;6.18;2.00;;;26.90;77.90;;;;;;4992341;28;20407;-81
2023/07/12 12:02:55;;;;;;;4.05;1.90;;;27.20;77.70;;;;;;4990991;28;20026;-83
2023/07/12 12:05:27;;;;;;;6.03;2.20;;;27.80;76.20;;;;;;5005606;28;20061;-82
2023/07/12 12:07:59;;;;;;;4.40;1.98;;;27.80;76.20;;;;;;4991039;28;20497;-79
2023/07/12 12:10:27;;;;;;;7.20;2.13;;;27.80;73.50;;;;;;4991072;28;20022;-78
2023/07/12 12:12:54;;;;;;;3.58;1.95;;;27.40;73.70;;;;;;4991745;28;20038;-78
2023/07/12 12:15:25;;;;;;;4.18;1.80;;;27.20;73.70;;;;;;4992855;28;20563;-78
2023/07/12 12:17:52;;;;;;;6.80;2.08;;;26.50;73.80;;;;;;4994153;28;20042;-84
2023/07/12 12:20:21;;;;;;;5.20;2.38;;;26.80;77.40;;;;;;4994552;28;20022;-79
2023/07/12 12:23:04;;;;;;;4.32;1.88;;;27.00;75.90;;;;;;4996142;28;20037;-83
2023/07/12 12:25:32;;;;;;;2.65;1.98;;;27.40;75.80;;;;;;4994921;28;20018;-82
2023/07/12 12:28:03;;;;;;;10.23;2.13;;;27.40;72.60;;;;;;5006126;28;20109;-79
2023/07/12 12:30:29;;;;;;;6.93;2.15;;;27.30;71.60;;;;;;4992911;28;20148;-78
2023/07/12 12:35:47;;;;;;;6.25;1.92;;;27.50;71.60;;;;;;5026322;23;20069;-79
2023/07/12 12:38:24;;;;;;;8.77;1.83;;;27.70;72.20;;;;;;4984265;28;20133;-79
2023/07/12 12:40:56;;;;;;;6.32;2.25;;;27.60;71.00;;;;;;4980729;28;20110;-78
2023/07/12 12:43:24;;;;;;;3.50;1.52;;;27.40;70.10;;;;;;4977430;28;20029;-82
2023/07/12 12:45:49;;;;;;;2.20;1.60;;;27.50;71.70;;;;;;5094644;23;20282;-78
2023/07/12 12:48:15;;;;;;;5.78;2.10;;;27.10;70.20;;;;;;4942948;28;20023;-80
2023/07/12 12:50:41;;;;;;;4.90;1.90;;;27.30;69.50;;;;;;4946379;28;20079;-80
2023/07/12 12:53:12;;;;;;;4.03;1.88;;;27.40;68.50;;;;;;4943486;28;20023;-82
2023/07/12 12:55:40;;;;;;;10.63;2.17;;;27.70;69.10;;;;;;4941557;28;20031;-78
2023/07/12 12:58:12;;;;;;;3.05;1.30;;;27.30;69.30;;;;;;4941085;28;20043;-77
2023/07/12 13:00:38;;;;;;;4.63;1.80;;;27.00;69.90;;;;;;4941717;28;20533;-77